sensor_id;sensor_type;location;lat;lon;timestamp;P1;durP1;ratioP1;P2;durP2;ratioP2
60726;SDS011;46577;49.004;12.120;2022-07-29T00:02:08;10.63;;;3.70;;
60726;SDS011;46577;49.004;12.120;2022-07-29T00:04:34;3.80;;;3.40;;
60726;SDS011;46577;49.004;12.120;2022-07-29T00:07:00;8.93;;;4.13;;
60726;SDS011;46577;49.004;12.120;2022-07-29T00:09:26;8.40;;;3.33;;
60726;SDS011;46577;49.004;12.120;2022-07-29T00:11:52;4.03;;;2.87;;
60726;SDS011;46577;49.004;12.120;2022-07-29T00:14:19;4.63;;;3.30;;
60726;SDS011;46577;49.004;12.120;2022-07-29T00:16:45;5.13;;;2.67;;
60726;SDS011;46577;49.004;12.120;2022-07-29T00:19:10;4.03;;;3.00;;
60726;SDS011;46577;49.004;12.120;2022-07-29T00:21:36;5.67;;;3.30;;
60726;SDS011;46577;49.004;12.120;2022-07-29T00:24:01;4.97;;;3.00;;
60726;SDS011;46577;49.004;12.120;2022-07-29T00:26:27;3.97;;;3.23;;
60726;SDS011;46577;49.004;12.120;2022-07-29T00:28:56;8.23;;;3.47;;
60726;SDS011;46577;49.004;12.120;2022-07-29T00:31:23;3.87;;;2.83;;
60726;SDS011;46577;49.004;12.120;2022-07-29T00:33:49;5.67;;;2.57;;
60726;SDS011;46577;49.004;12.120;2022-07-29T00:36:14;4.10;;;3.30;;
60726;SDS011;46577;49.004;12.120;2022-07-29T00:38:40;3.60;;;2.77;;
60726;SDS011;46577;49.004;12.120;2022-07-29T00:41:09;5.50;;;3.00;;
60726;SDS011;46577;49.004;12.120;2022-07-29T00:43:34;3.93;;;2.83;;
60726;SDS011;46577;49.004;12.120;2022-07-29T00:46:00;8.13;;;4.03;;
60726;SDS011;46577;49.004;12.120;2022-07-29T00:48:26;11.00;;;3.20;;
60726;SDS011;46577;49.004;12.120;2022-07-29T00:50:52;3.83;;;3.23;;
60726;SDS011;46577;49.004;12.120;2022-07-29T00:53:18;3.00;;;2.70;;
60726;SDS011;46577;49.004;12.120;2022-07-29T00:55:45;4.80;;;2.97;;
60726;SDS011;46577;49.004;12.120;2022-07-29T00:58:11;10.60;;;2.90;;
60726;SDS011;46577;49.004;12.120;2022-07-29T01:00:38;5.73;;;3.37;;
60726;SDS011;46577;49.004;12.120;2022-07-29T01:03:05;4.60;;;3.03;;
60726;SDS011;46577;49.004;12.120;2022-07-29T01:05:32;3.70;;;3.07;;
60726;SDS011;46577;49.004;12.120;2022-07-29T01:07:58;5.97;;;2.80;;
60726;SDS011;46577;49.004;12.120;2022-07-29T01:10:25;5.93;;;3.47;;
60726;SDS011;46577;49.004;12.120;2022-07-29T01:12:52;4.53;;;3.03;;
60726;SDS011;46577;49.004;12.120;2022-07-29T01:15:19;4.80;;;3.57;;
60726;SDS011;46577;49.004;12.120;2022-07-29T01:17:48;3.60;;;2.80;;
60726;SDS011;46577;49.004;12.120;2022-07-29T01:28:32;9.53;;;2.70;;
60726;SDS011;46577;49.004;12.120;2022-07-29T01:31:22;4.30;;;2.83;;
60726;SDS011;46577;49.004;12.120;2022-07-29T01:33:57;3.17;;;2.60;;
60726;SDS011;46577;49.004;12.120;2022-07-29T01:39:23;6.60;;;3.43;;
60726;SDS011;46577;49.004;12.120;2022-07-29T01:42:00;8.30;;;3.30;;
60726;SDS011;46577;49.004;12.120;2022-07-29T01:44:34;4.40;;;3.40;;
60726;SDS011;46577;49.004;12.120;2022-07-29T01:47:05;5.67;;;3.10;;
60726;SDS011;46577;49.004;12.120;2022-07-29T01:49:39;9.30;;;3.60;;
60726;SDS011;46577;49.004;12.120;2022-07-29T01:52:11;3.50;;;2.80;;
60726;SDS011;46577;49.004;12.120;2022-07-29T01:54:45;3.57;;;3.10;;
60726;SDS011;46577;49.004;12.120;2022-07-29T01:57:16;4.00;;;2.80;;
60726;SDS011;46577;49.004;12.120;2022-07-29T01:59:43;5.17;;;3.50;;
60726;SDS011;46577;49.004;12.120;2022-07-29T02:02:11;3.80;;;3.23;;
60726;SDS011;46577;49.004;12.120;2022-07-29T02:04:40;4.00;;;2.70;;
60726;SDS011;46577;49.004;12.120;2022-07-29T02:07:08;4.60;;;3.37;;
60726;SDS011;46577;49.004;12.120;2022-07-29T02:09:37;6.67;;;3.33;;
60726;SDS011;46577;49.004;12.120;2022-07-29T02:12:05;6.70;;;3.80;;
60726;SDS011;46577;49.004;12.120;2022-07-29T02:14:41;6.10;;;3.53;;
60726;SDS011;46577;49.004;12.120;2022-07-29T02:17:11;5.67;;;4.13;;
60726;SDS011;46577;49.004;12.120;2022-07-29T02:19:38;8.70;;;3.13;;
60726;SDS011;46577;49.004;12.120;2022-07-29T02:22:05;3.80;;;3.03;;
60726;SDS011;46577;49.004;12.120;2022-07-29T02:24:35;7.60;;;3.50;;
60726;SDS011;46577;49.004;12.120;2022-07-29T02:27:03;3.77;;;2.83;;
60726;SDS011;46577;49.004;12.120;2022-07-29T02:29:30;9.93;;;3.20;;
60726;SDS011;46577;49.004;12.120;2022-07-29T02:31:57;9.90;;;3.60;;
60726;SDS011;46577;49.004;12.120;2022-07-29T02:34:25;10.87;;;3.27;;
60726;SDS011;46577;49.004;12.120;2022-07-29T02:36:53;6.77;;;3.57;;
60726;SDS011;46577;49.004;12.120;2022-07-29T02:39:20;5.33;;;3.33;;
60726;SDS011;46577;49.004;12.120;2022-07-29T02:41:48;13.30;;;3.10;;
60726;SDS011;46577;49.004;12.120;2022-07-29T02:44:18;3.80;;;2.83;;
60726;SDS011;46577;49.004;12.120;2022-07-29T02:46:49;8.83;;;3.23;;
60726;SDS011;46577;49.004;12.120;2022-07-29T02:51:58;4.23;;;3.37;;
60726;SDS011;46577;49.004;12.120;2022-07-29T02:59:53;8.43;;;4.00;;
60726;SDS011;46577;49.004;12.120;2022-07-29T03:02:22;4.93;;;3.10;;
60726;SDS011;46577;49.004;12.120;2022-07-29T03:04:50;6.53;;;3.17;;
60726;SDS011;46577;49.004;12.120;2022-07-29T03:07:18;5.53;;;3.53;;
60726;SDS011;46577;49.004;12.120;2022-07-29T03:09:45;5.90;;;3.70;;
60726;SDS011;46577;49.004;12.120;2022-07-29T03:12:11;6.10;;;4.07;;
60726;SDS011;46577;49.004;12.120;2022-07-29T03:14:38;5.53;;;4.30;;
60726;SDS011;46577;49.004;12.120;2022-07-29T03:17:04;6.70;;;3.90;;
60726;SDS011;46577;49.004;12.120;2022-07-29T03:19:30;7.17;;;3.97;;
60726;SDS011;46577;49.004;12.120;2022-07-29T03:21:59;5.67;;;3.60;;
60726;SDS011;46577;49.004;12.120;2022-07-29T03:24:29;4.13;;;3.40;;
60726;SDS011;46577;49.004;12.120;2022-07-29T03:26:59;8.13;;;3.90;;
60726;SDS011;46577;49.004;12.120;2022-07-29T03:29:25;7.73;;;3.53;;
60726;SDS011;46577;49.004;12.120;2022-07-29T03:31:52;5.37;;;3.43;;
60726;SDS011;46577;49.004;12.120;2022-07-29T03:34:18;9.63;;;3.80;;
60726;SDS011;46577;49.004;12.120;2022-07-29T03:36:43;8.50;;;3.60;;
60726;SDS011;46577;49.004;12.120;2022-07-29T03:39:09;8.33;;;3.60;;
60726;SDS011;46577;49.004;12.120;2022-07-29T03:41:37;4.60;;;3.80;;
60726;SDS011;46577;49.004;12.120;2022-07-29T03:44:04;8.90;;;3.83;;
60726;SDS011;46577;49.004;12.120;2022-07-29T03:46:32;6.00;;;3.77;;
60726;SDS011;46577;49.004;12.120;2022-07-29T03:49:00;9.00;;;3.80;;
60726;SDS011;46577;49.004;12.120;2022-07-29T03:51:27;5.13;;;3.87;;
60726;SDS011;46577;49.004;12.120;2022-07-29T03:53:53;12.00;;;4.07;;
60726;SDS011;46577;49.004;12.120;2022-07-29T03:56:22;7.60;;;3.63;;
60726;SDS011;46577;49.004;12.120;2022-07-29T03:58:52;7.27;;;3.73;;
60726;SDS011;46577;49.004;12.120;2022-07-29T04:01:18;6.40;;;3.30;;
60726;SDS011;46577;49.004;12.120;2022-07-29T04:03:45;12.93;;;3.97;;
60726;SDS011;46577;49.004;12.120;2022-07-29T04:06:11;9.00;;;4.10;;
60726;SDS011;46577;49.004;12.120;2022-07-29T04:08:37;5.00;;;3.80;;
60726;SDS011;46577;49.004;12.120;2022-07-29T04:11:03;13.53;;;4.70;;
60726;SDS011;46577;49.004;12.120;2022-07-29T04:13:29;9.40;;;4.07;;
60726;SDS011;46577;49.004;12.120;2022-07-29T04:15:56;4.70;;;3.77;;
60726;SDS011;46577;49.004;12.120;2022-07-29T04:18:22;6.77;;;3.73;;
60726;SDS011;46577;49.004;12.120;2022-07-29T04:20:47;3.53;;;3.00;;
60726;SDS011;46577;49.004;12.120;2022-07-29T04:23:13;8.70;;;3.80;;
60726;SDS011;46577;49.004;12.120;2022-07-29T04:25:40;4.03;;;3.40;;
60726;SDS011;46577;49.004;12.120;2022-07-29T04:28:06;11.10;;;3.93;;
60726;SDS011;46577;49.004;12.120;2022-07-29T04:30:32;6.43;;;3.37;;
60726;SDS011;46577;49.004;12.120;2022-07-29T04:33:04;7.80;;;3.50;;
60726;SDS011;46577;49.004;12.120;2022-07-29T04:35:33;6.07;;;2.93;;
60726;SDS011;46577;49.004;12.120;2022-07-29T04:38:00;5.60;;;3.37;;
60726;SDS011;46577;49.004;12.120;2022-07-29T04:40:27;10.27;;;3.60;;
60726;SDS011;46577;49.004;12.120;2022-07-29T04:42:52;6.30;;;3.20;;
60726;SDS011;46577;49.004;12.120;2022-07-29T04:45:18;4.07;;;3.03;;
60726;SDS011;46577;49.004;12.120;2022-07-29T04:47:44;5.80;;;3.10;;
60726;SDS011;46577;49.004;12.120;2022-07-29T04:50:09;13.33;;;3.60;;
60726;SDS011;46577;49.004;12.120;2022-07-29T04:52:35;6.60;;;4.10;;
60726;SDS011;46577;49.004;12.120;2022-07-29T04:55:02;5.83;;;3.20;;
60726;SDS011;46577;49.004;12.120;2022-07-29T04:57:29;8.60;;;3.10;;
60726;SDS011;46577;49.004;12.120;2022-07-29T04:59:54;6.87;;;3.37;;
60726;SDS011;46577;49.004;12.120;2022-07-29T05:02:20;9.33;;;3.60;;
60726;SDS011;46577;49.004;12.120;2022-07-29T05:04:46;8.03;;;3.40;;
60726;SDS011;46577;49.004;12.120;2022-07-29T05:07:12;8.90;;;3.60;;
60726;SDS011;46577;49.004;12.120;2022-07-29T05:09:39;6.40;;;3.30;;
60726;SDS011;46577;49.004;12.120;2022-07-29T05:12:05;4.40;;;3.37;;
60726;SDS011;46577;49.004;12.120;2022-07-29T05:14:31;13.17;;;3.80;;
60726;SDS011;46577;49.004;12.120;2022-07-29T05:16:56;5.13;;;3.00;;
60726;SDS011;46577;49.004;12.120;2022-07-29T05:19:22;4.47;;;3.20;;
60726;SDS011;46577;49.004;12.120;2022-07-29T05:21:48;6.00;;;3.17;;
60726;SDS011;46577;49.004;12.120;2022-07-29T05:24:14;9.37;;;3.33;;
60726;SDS011;46577;49.004;12.120;2022-07-29T05:26:40;6.67;;;3.23;;
60726;SDS011;46577;49.004;12.120;2022-07-29T05:29:06;7.50;;;3.60;;
60726;SDS011;46577;49.004;12.120;2022-07-29T05:31:31;7.37;;;3.30;;
60726;SDS011;46577;49.004;12.120;2022-07-29T05:33:58;4.60;;;3.37;;
60726;SDS011;46577;49.004;12.120;2022-07-29T05:36:24;4.87;;;3.37;;
60726;SDS011;46577;49.004;12.120;2022-07-29T05:38:49;6.30;;;3.70;;
60726;SDS011;46577;49.004;12.120;2022-07-29T05:41:17;6.80;;;3.20;;
60726;SDS011;46577;49.004;12.120;2022-07-29T05:43:43;5.70;;;3.30;;
60726;SDS011;46577;49.004;12.120;2022-07-29T05:46:08;5.10;;;2.90;;
60726;SDS011;46577;49.004;12.120;2022-07-29T05:48:34;6.10;;;3.43;;
60726;SDS011;46577;49.004;12.120;2022-07-29T05:51:00;7.00;;;3.30;;
60726;SDS011;46577;49.004;12.120;2022-07-29T05:53:26;6.57;;;3.53;;
60726;SDS011;46577;49.004;12.120;2022-07-29T05:55:52;11.23;;;3.57;;
60726;SDS011;46577;49.004;12.120;2022-07-29T05:58:18;10.43;;;2.93;;
60726;SDS011;46577;49.004;12.120;2022-07-29T06:00:43;5.57;;;2.83;;
60726;SDS011;46577;49.004;12.120;2022-07-29T06:03:10;11.90;;;3.20;;
60726;SDS011;46577;49.004;12.120;2022-07-29T06:05:35;7.43;;;3.37;;
60726;SDS011;46577;49.004;12.120;2022-07-29T06:08:01;3.93;;;3.30;;
60726;SDS011;46577;49.004;12.120;2022-07-29T06:10:27;5.67;;;3.30;;
60726;SDS011;46577;49.004;12.120;2022-07-29T06:12:53;5.97;;;3.00;;
60726;SDS011;46577;49.004;12.120;2022-07-29T06:15:18;7.93;;;3.50;;
60726;SDS011;46577;49.004;12.120;2022-07-29T06:17:44;6.20;;;3.57;;
60726;SDS011;46577;49.004;12.120;2022-07-29T06:20:10;12.43;;;3.40;;
60726;SDS011;46577;49.004;12.120;2022-07-29T06:22:35;7.60;;;3.50;;
60726;SDS011;46577;49.004;12.120;2022-07-29T06:25:02;5.67;;;4.00;;
60726;SDS011;46577;49.004;12.120;2022-07-29T06:27:28;5.63;;;3.10;;
60726;SDS011;46577;49.004;12.120;2022-07-29T06:29:55;11.83;;;3.73;;
60726;SDS011;46577;49.004;12.120;2022-07-29T06:32:21;7.43;;;3.50;;
60726;SDS011;46577;49.004;12.120;2022-07-29T06:34:47;7.47;;;3.37;;
60726;SDS011;46577;49.004;12.120;2022-07-29T06:37:13;11.13;;;3.50;;
60726;SDS011;46577;49.004;12.120;2022-07-29T06:39:39;6.50;;;3.53;;
60726;SDS011;46577;49.004;12.120;2022-07-29T06:42:05;8.83;;;3.40;;
60726;SDS011;46577;49.004;12.120;2022-07-29T06:44:31;6.53;;;3.87;;
60726;SDS011;46577;49.004;12.120;2022-07-29T06:46:59;5.70;;;3.93;;
60726;SDS011;46577;49.004;12.120;2022-07-29T06:49:25;5.97;;;4.17;;
60726;SDS011;46577;49.004;12.120;2022-07-29T06:51:51;6.83;;;3.87;;
60726;SDS011;46577;49.004;12.120;2022-07-29T06:54:17;6.07;;;4.60;;
60726;SDS011;46577;49.004;12.120;2022-07-29T06:56:43;8.97;;;4.10;;
60726;SDS011;46577;49.004;12.120;2022-07-29T06:59:09;8.33;;;3.80;;
60726;SDS011;46577;49.004;12.120;2022-07-29T07:01:36;9.17;;;4.40;;
60726;SDS011;46577;49.004;12.120;2022-07-29T07:04:02;4.90;;;3.47;;
60726;SDS011;46577;49.004;12.120;2022-07-29T07:06:28;3.87;;;3.30;;
60726;SDS011;46577;49.004;12.120;2022-07-29T07:08:54;9.63;;;2.67;;
60726;SDS011;46577;49.004;12.120;2022-07-29T07:11:19;3.50;;;2.80;;
60726;SDS011;46577;49.004;12.120;2022-07-29T07:13:45;2.50;;;2.30;;
60726;SDS011;46577;49.004;12.120;2022-07-29T07:16:11;5.30;;;2.53;;
60726;SDS011;46577;49.004;12.120;2022-07-29T07:18:36;4.05;;;1.90;;
60726;SDS011;46577;49.004;12.120;2022-07-29T07:21:02;5.30;;;2.15;;
60726;SDS011;46577;49.004;12.120;2022-07-29T07:23:29;3.05;;;2.40;;
60726;SDS011;46577;49.004;12.120;2022-07-29T07:25:55;4.53;;;1.75;;
60726;SDS011;46577;49.004;12.120;2022-07-29T07:28:21;4.25;;;2.00;;
60726;SDS011;46577;49.004;12.120;2022-07-29T07:30:46;3.15;;;2.05;;
60726;SDS011;46577;49.004;12.120;2022-07-29T07:33:12;7.57;;;1.60;;
60726;SDS011;46577;49.004;12.120;2022-07-29T07:35:38;4.15;;;1.70;;
60726;SDS011;46577;49.004;12.120;2022-07-29T07:38:05;4.78;;;1.60;;
60726;SDS011;46577;49.004;12.120;2022-07-29T07:40:31;2.65;;;1.70;;
60726;SDS011;46577;49.004;12.120;2022-07-29T07:42:57;1.58;;;1.40;;
60726;SDS011;46577;49.004;12.120;2022-07-29T07:45:22;3.58;;;1.75;;
60726;SDS011;46577;49.004;12.120;2022-07-29T07:47:48;8.90;;;1.80;;
60726;SDS011;46577;49.004;12.120;2022-07-29T07:50:14;4.32;;;1.55;;
60726;SDS011;46577;49.004;12.120;2022-07-29T07:52:45;2.80;;;1.80;;
60726;SDS011;46577;49.004;12.120;2022-07-29T07:55:15;9.35;;;1.60;;
60726;SDS011;46577;49.004;12.120;2022-07-29T07:57:41;5.90;;;1.60;;
60726;SDS011;46577;49.004;12.120;2022-07-29T08:00:07;3.88;;;1.38;;
60726;SDS011;46577;49.004;12.120;2022-07-29T08:02:33;1.52;;;1.35;;
60726;SDS011;46577;49.004;12.120;2022-07-29T08:04:59;4.18;;;1.35;;
60726;SDS011;46577;49.004;12.120;2022-07-29T08:07:24;3.10;;;1.45;;
60726;SDS011;46577;49.004;12.120;2022-07-29T08:09:50;2.10;;;1.35;;
60726;SDS011;46577;49.004;12.120;2022-07-29T08:12:15;5.00;;;1.83;;
60726;SDS011;46577;49.004;12.120;2022-07-29T08:14:41;1.75;;;1.63;;
60726;SDS011;46577;49.004;12.120;2022-07-29T08:17:07;2.85;;;1.40;;
60726;SDS011;46577;49.004;12.120;2022-07-29T08:19:32;6.70;;;1.30;;
60726;SDS011;46577;49.004;12.120;2022-07-29T08:21:58;6.72;;;1.70;;
60726;SDS011;46577;49.004;12.120;2022-07-29T08:24:24;3.05;;;1.42;;
60726;SDS011;46577;49.004;12.120;2022-07-29T08:27:08;2.47;;;1.42;;
60726;SDS011;46577;49.004;12.120;2022-07-29T08:29:37;10.85;;;2.05;;
60726;SDS011;46577;49.004;12.120;2022-07-29T08:32:04;3.70;;;1.23;;
60726;SDS011;46577;49.004;12.120;2022-07-29T08:34:30;2.80;;;1.27;;
60726;SDS011;46577;49.004;12.120;2022-07-29T08:36:56;2.25;;;2.05;;
60726;SDS011;46577;49.004;12.120;2022-07-29T08:39:22;4.18;;;1.70;;
60726;SDS011;46577;49.004;12.120;2022-07-29T08:41:48;3.10;;;1.63;;
60726;SDS011;46577;49.004;12.120;2022-07-29T08:44:16;2.55;;;1.40;;
60726;SDS011;46577;49.004;12.120;2022-07-29T08:46:42;3.28;;;1.70;;
60726;SDS011;46577;49.004;12.120;2022-07-29T08:49:08;4.82;;;2.10;;
60726;SDS011;46577;49.004;12.120;2022-07-29T08:51:34;2.80;;;1.55;;
60726;SDS011;46577;49.004;12.120;2022-07-29T08:54:03;5.95;;;2.10;;
60726;SDS011;46577;49.004;12.120;2022-07-29T08:56:29;2.75;;;2.38;;
60726;SDS011;46577;49.004;12.120;2022-07-29T08:58:55;2.60;;;2.00;;
60726;SDS011;46577;49.004;12.120;2022-07-29T09:01:24;2.10;;;1.90;;
60726;SDS011;46577;49.004;12.120;2022-07-29T09:03:54;2.65;;;2.38;;
60726;SDS011;46577;49.004;12.120;2022-07-29T09:06:21;5.45;;;2.15;;
60726;SDS011;46577;49.004;12.120;2022-07-29T09:08:47;5.93;;;2.10;;
60726;SDS011;46577;49.004;12.120;2022-07-29T09:11:13;7.32;;;1.90;;
60726;SDS011;46577;49.004;12.120;2022-07-29T09:13:39;3.55;;;2.10;;
60726;SDS011;46577;49.004;12.120;2022-07-29T09:16:05;3.83;;;1.90;;
60726;SDS011;46577;49.004;12.120;2022-07-29T09:18:35;1.73;;;1.63;;
60726;SDS011;46577;49.004;12.120;2022-07-29T09:21:08;3.85;;;2.08;;
60726;SDS011;46577;49.004;12.120;2022-07-29T09:26:36;4.97;;;1.45;;
60726;SDS011;46577;49.004;12.120;2022-07-29T09:29:13;1.98;;;1.70;;
60726;SDS011;46577;49.004;12.120;2022-07-29T09:31:47;4.88;;;1.52;;
60726;SDS011;46577;49.004;12.120;2022-07-29T09:34:16;2.88;;;1.33;;
60726;SDS011;46577;49.004;12.120;2022-07-29T09:36:47;1.45;;;1.30;;
60726;SDS011;46577;49.004;12.120;2022-07-29T09:39:15;2.92;;;1.15;;
60726;SDS011;46577;49.004;12.120;2022-07-29T09:41:52;1.10;;;1.10;;
60726;SDS011;46577;49.004;12.120;2022-07-29T09:44:20;2.35;;;2.15;;
60726;SDS011;46577;49.004;12.120;2022-07-29T09:46:59;1.85;;;1.75;;
60726;SDS011;46577;49.004;12.120;2022-07-29T09:49:34;1.98;;;1.30;;
60726;SDS011;46577;49.004;12.120;2022-07-29T09:52:08;2.05;;;1.55;;
60726;SDS011;46577;49.004;12.120;2022-07-29T09:54:35;0.90;;;0.90;;
60726;SDS011;46577;49.004;12.120;2022-07-29T09:57:02;2.97;;;1.02;;
60726;SDS011;46577;49.004;12.120;2022-07-29T09:59:29;3.58;;;1.00;;
60726;SDS011;46577;49.004;12.120;2022-07-29T10:01:55;2.90;;;1.08;;
60726;SDS011;46577;49.004;12.120;2022-07-29T10:04:21;1.60;;;1.17;;
60726;SDS011;46577;49.004;12.120;2022-07-29T10:07:08;1.02;;;1.00;;
60726;SDS011;46577;49.004;12.120;2022-07-29T10:09:34;2.15;;;1.30;;
60726;SDS011;46577;49.004;12.120;2022-07-29T10:12:03;1.45;;;1.05;;
60726;SDS011;46577;49.004;12.120;2022-07-29T10:14:30;3.22;;;1.25;;
60726;SDS011;46577;49.004;12.120;2022-07-29T10:16:59;3.15;;;1.05;;
60726;SDS011;46577;49.004;12.120;2022-07-29T10:19:31;5.47;;;1.02;;
60726;SDS011;46577;49.004;12.120;2022-07-29T10:21:58;1.25;;;0.88;;
60726;SDS011;46577;49.004;12.120;2022-07-29T10:24:26;1.83;;;0.95;;
60726;SDS011;46577;49.004;12.120;2022-07-29T10:26:54;1.02;;;1.00;;
60726;SDS011;46577;49.004;12.120;2022-07-29T10:29:20;2.42;;;1.17;;
60726;SDS011;46577;49.004;12.120;2022-07-29T10:31:58;2.33;;;1.00;;
60726;SDS011;46577;49.004;12.120;2022-07-29T10:37:45;1.48;;;0.90;;
60726;SDS011;46577;49.004;12.120;2022-07-29T10:40:43;2.17;;;0.85;;
60726;SDS011;46577;49.004;12.120;2022-07-29T10:43:41;1.15;;;1.05;;
60726;SDS011;46577;49.004;12.120;2022-07-29T10:46:09;1.48;;;1.00;;
60726;SDS011;46577;49.004;12.120;2022-07-29T10:51:58;1.15;;;0.63;;
60726;SDS011;46577;49.004;12.120;2022-07-29T10:59:38;0.80;;;0.80;;
60726;SDS011;46577;49.004;12.120;2022-07-29T11:05:07;3.83;;;0.98;;
60726;SDS011;46577;49.004;12.120;2022-07-29T11:07:34;2.65;;;1.00;;
60726;SDS011;46577;49.004;12.120;2022-07-29T11:15:08;3.05;;;1.60;;
60726;SDS011;46577;49.004;12.120;2022-07-29T11:20:55;2.15;;;1.50;;
60726;SDS011;46577;49.004;12.120;2022-07-29T11:29:13;1.63;;;1.53;;
60726;SDS011;46577;49.004;12.120;2022-07-29T11:31:48;2.30;;;2.10;;
60726;SDS011;46577;49.004;12.120;2022-07-29T11:34:17;2.60;;;2.40;;
60726;SDS011;46577;49.004;12.120;2022-07-29T11:47:21;2.30;;;1.90;;
60726;SDS011;46577;49.004;12.120;2022-07-29T11:49:47;2.60;;;1.87;;
60726;SDS011;46577;49.004;12.120;2022-07-29T11:52:16;3.87;;;2.50;;
60726;SDS011;46577;49.004;12.120;2022-07-29T11:54:42;2.87;;;2.33;;
60726;SDS011;46577;49.004;12.120;2022-07-29T11:57:08;3.37;;;2.77;;
60726;SDS011;46577;49.004;12.120;2022-07-29T11:59:41;4.57;;;2.57;;
60726;SDS011;46577;49.004;12.120;2022-07-29T12:02:07;3.77;;;2.20;;
60726;SDS011;46577;49.004;12.120;2022-07-29T12:04:34;5.40;;;2.80;;
60726;SDS011;46577;49.004;12.120;2022-07-29T12:07:12;3.30;;;2.50;;
60726;SDS011;46577;49.004;12.120;2022-07-29T12:09:38;5.83;;;2.40;;
60726;SDS011;46577;49.004;12.120;2022-07-29T12:12:04;4.70;;;2.20;;
60726;SDS011;46577;49.004;12.120;2022-07-29T12:14:33;3.70;;;3.27;;
60726;SDS011;46577;49.004;12.120;2022-07-29T12:16:59;1.97;;;1.80;;
60726;SDS011;46577;49.004;12.120;2022-07-29T12:19:25;2.13;;;2.00;;
60726;SDS011;46577;49.004;12.120;2022-07-29T12:21:52;2.53;;;1.77;;
60726;SDS011;46577;49.004;12.120;2022-07-29T12:24:19;9.43;;;2.13;;
60726;SDS011;46577;49.004;12.120;2022-07-29T12:26:52;2.67;;;1.90;;
60726;SDS011;46577;49.004;12.120;2022-07-29T12:29:22;2.57;;;2.27;;
60726;SDS011;46577;49.004;12.120;2022-07-29T12:31:52;2.00;;;1.90;;
60726;SDS011;46577;49.004;12.120;2022-07-29T12:34:19;2.23;;;2.03;;
60726;SDS011;46577;49.004;12.120;2022-07-29T12:36:47;2.40;;;1.70;;
60726;SDS011;46577;49.004;12.120;2022-07-29T12:39:15;2.13;;;1.97;;
60726;SDS011;46577;49.004;12.120;2022-07-29T12:41:42;2.30;;;2.03;;
60726;SDS011;46577;49.004;12.120;2022-07-29T12:44:08;5.03;;;2.40;;
60726;SDS011;46577;49.004;12.120;2022-07-29T12:46:34;3.73;;;1.60;;
60726;SDS011;46577;49.004;12.120;2022-07-29T12:49:00;5.10;;;2.00;;
60726;SDS011;46577;49.004;12.120;2022-07-29T12:51:30;2.70;;;1.70;;
60726;SDS011;46577;49.004;12.120;2022-07-29T12:54:04;1.63;;;1.53;;
60726;SDS011;46577;49.004;12.120;2022-07-29T12:56:35;5.17;;;1.90;;
60726;SDS011;46577;49.004;12.120;2022-07-29T13:01:44;2.30;;;2.07;;
60726;SDS011;46577;49.004;12.120;2022-07-29T13:04:23;2.53;;;1.73;;
60726;SDS011;46577;49.004;12.120;2022-07-29T13:06:57;5.80;;;1.97;;
60726;SDS011;46577;49.004;12.120;2022-07-29T13:09:35;6.53;;;2.47;;
60726;SDS011;46577;49.004;12.120;2022-07-29T13:12:11;2.40;;;1.77;;
60726;SDS011;46577;49.004;12.120;2022-07-29T13:14:45;5.00;;;2.13;;
60726;SDS011;46577;49.004;12.120;2022-07-29T13:17:16;1.90;;;1.80;;
60726;SDS011;46577;49.004;12.120;2022-07-29T13:19:46;1.80;;;1.70;;
60726;SDS011;46577;49.004;12.120;2022-07-29T13:22:34;2.70;;;1.50;;
60726;SDS011;46577;49.004;12.120;2022-07-29T13:25:01;3.83;;;1.77;;
60726;SDS011;46577;49.004;12.120;2022-07-29T13:27:28;1.83;;;1.60;;
60726;SDS011;46577;49.004;12.120;2022-07-29T13:29:57;2.43;;;2.23;;
60726;SDS011;46577;49.004;12.120;2022-07-29T13:32:25;4.23;;;2.20;;
60726;SDS011;46577;49.004;12.120;2022-07-29T13:34:52;4.57;;;2.10;;
60726;SDS011;46577;49.004;12.120;2022-07-29T13:37:18;6.03;;;1.93;;
60726;SDS011;46577;49.004;12.120;2022-07-29T13:39:44;5.63;;;2.07;;
60726;SDS011;46577;49.004;12.120;2022-07-29T13:42:10;3.40;;;3.10;;
60726;SDS011;46577;49.004;12.120;2022-07-29T13:44:39;4.27;;;2.30;;
60726;SDS011;46577;49.004;12.120;2022-07-29T13:47:06;3.20;;;2.10;;
60726;SDS011;46577;49.004;12.120;2022-07-29T13:49:32;6.30;;;1.97;;
60726;SDS011;46577;49.004;12.120;2022-07-29T13:51:59;3.50;;;2.13;;
60726;SDS011;46577;49.004;12.120;2022-07-29T13:54:24;3.70;;;2.17;;
60726;SDS011;46577;49.004;12.120;2022-07-29T13:56:50;2.47;;;2.27;;
60726;SDS011;46577;49.004;12.120;2022-07-29T13:59:16;3.20;;;1.97;;
60726;SDS011;46577;49.004;12.120;2022-07-29T14:01:42;2.47;;;2.07;;
60726;SDS011;46577;49.004;12.120;2022-07-29T14:04:08;2.60;;;1.90;;
60726;SDS011;46577;49.004;12.120;2022-07-29T14:06:34;2.50;;;2.30;;
60726;SDS011;46577;49.004;12.120;2022-07-29T14:09:00;8.30;;;2.10;;
60726;SDS011;46577;49.004;12.120;2022-07-29T14:11:25;1.97;;;1.83;;
60726;SDS011;46577;49.004;12.120;2022-07-29T14:13:51;2.83;;;2.10;;
60726;SDS011;46577;49.004;12.120;2022-07-29T14:16:17;2.33;;;2.13;;
60726;SDS011;46577;49.004;12.120;2022-07-29T14:18:42;3.23;;;2.27;;
60726;SDS011;46577;49.004;12.120;2022-07-29T14:21:08;2.00;;;1.90;;
60726;SDS011;46577;49.004;12.120;2022-07-29T14:23:34;2.43;;;2.23;;
60726;SDS011;46577;49.004;12.120;2022-07-29T14:26:01;3.77;;;2.20;;
60726;SDS011;46577;49.004;12.120;2022-07-29T14:28:27;2.30;;;2.10;;
60726;SDS011;46577;49.004;12.120;2022-07-29T14:30:52;2.10;;;1.90;;
60726;SDS011;46577;49.004;12.120;2022-07-29T14:33:18;3.60;;;1.80;;
60726;SDS011;46577;49.004;12.120;2022-07-29T14:35:45;2.63;;;1.80;;
60726;SDS011;46577;49.004;12.120;2022-07-29T14:38:10;2.33;;;2.00;;
60726;SDS011;46577;49.004;12.120;2022-07-29T14:40:36;1.70;;;1.60;;
60726;SDS011;46577;49.004;12.120;2022-07-29T14:43:03;2.00;;;1.90;;
60726;SDS011;46577;49.004;12.120;2022-07-29T14:45:29;8.83;;;2.50;;
60726;SDS011;46577;49.004;12.120;2022-07-29T14:47:54;5.70;;;1.93;;
60726;SDS011;46577;49.004;12.120;2022-07-29T14:50:21;3.00;;;1.73;;
60726;SDS011;46577;49.004;12.120;2022-07-29T14:52:46;2.20;;;1.87;;
60726;SDS011;46577;49.004;12.120;2022-07-29T14:55:12;5.40;;;3.10;;
60726;SDS011;46577;49.004;12.120;2022-07-29T14:57:38;2.93;;;2.27;;
60726;SDS011;46577;49.004;12.120;2022-07-29T15:00:04;2.37;;;1.80;;
60726;SDS011;46577;49.004;12.120;2022-07-29T15:02:33;4.40;;;1.87;;
60726;SDS011;46577;49.004;12.120;2022-07-29T15:04:59;2.20;;;2.00;;
60726;SDS011;46577;49.004;12.120;2022-07-29T15:07:24;12.93;;;3.00;;
60726;SDS011;46577;49.004;12.120;2022-07-29T15:09:50;6.47;;;2.07;;
60726;SDS011;46577;49.004;12.120;2022-07-29T15:12:16;3.77;;;2.20;;
60726;SDS011;46577;49.004;12.120;2022-07-29T15:14:42;4.13;;;1.93;;
60726;SDS011;46577;49.004;12.120;2022-07-29T15:17:07;2.17;;;1.97;;
60726;SDS011;46577;49.004;12.120;2022-07-29T15:19:33;3.77;;;1.80;;
60726;SDS011;46577;49.004;12.120;2022-07-29T15:21:59;2.13;;;1.63;;
60726;SDS011;46577;49.004;12.120;2022-07-29T15:24:25;3.23;;;1.43;;
60726;SDS011;46577;49.004;12.120;2022-07-29T15:26:51;2.20;;;2.00;;
60726;SDS011;46577;49.004;12.120;2022-07-29T15:29:16;1.97;;;1.80;;
60726;SDS011;46577;49.004;12.120;2022-07-29T15:31:42;2.03;;;1.53;;
60726;SDS011;46577;49.004;12.120;2022-07-29T15:34:08;3.57;;;1.73;;
60726;SDS011;46577;49.004;12.120;2022-07-29T15:36:34;3.80;;;2.00;;
60726;SDS011;46577;49.004;12.120;2022-07-29T15:38:59;5.73;;;2.70;;
60726;SDS011;46577;49.004;12.120;2022-07-29T15:41:26;3.70;;;3.10;;